Terminal Aerodrome Forecast
Issued by NWS Cleveland, OH

Home | Current Version | Previous Version | Text Only | Print | Product List | Glossary Off
Versions: 1 2 3 4 5 6 7 8 9 10 11 12 13 14 15 16 17 18 19 20 21 22 23 24 25 26

000
FTUS41 KCLE 091411 AAB
TAFTOL
TAF AMD
KTOL 091411Z 0914/1012 16006KT 1SM -SN BR VV020
      TEMPO 0914/0916 4SM -SN BR OVC028
     FM091600 22009KT 5SM -SHSN SCT015 OVC025
     FM091700 24010KT P6SM -SHSN BKN035
      TEMPO 0921/0924 2SM -SN OVC015
     FM100300 29009KT P6SM OVC025
     FM100600 27008KT P6SM BKN050=

USA.gov is the U.S. government's official web portal to all federal, state and local government web resources and services.